sensor_id;sensor_type;location;lat;lon;timestamp;P1;durP1;ratioP1;P2;durP2;ratioP2
78893;SDS011;68282;42.698;23.350;2023-05-01T00:00:48;8.32;;;5.70;;
78893;SDS011;68282;42.698;23.350;2023-05-01T00:03:14;11.57;;;7.63;;
78893;SDS011;68282;42.698;23.350;2023-05-01T00:05:39;9.27;;;6.13;;
78893;SDS011;68282;42.698;23.350;2023-05-01T00:08:05;9.32;;;6.45;;
78893;SDS011;68282;42.698;23.350;2023-05-01T00:10:33;13.60;;;6.35;;
78893;SDS011;68282;42.698;23.350;2023-05-01T00:13:00;9.88;;;6.07;;
78893;SDS011;68282;42.698;23.350;2023-05-01T00:15:25;9.35;;;5.40;;
78893;SDS011;68282;42.698;23.350;2023-05-01T00:17:52;8.98;;;5.93;;
78893;SDS011;68282;42.698;23.350;2023-05-01T00:20:17;12.80;;;6.47;;
78893;SDS011;68282;42.698;23.350;2023-05-01T00:22:43;14.07;;;6.45;;
78893;SDS011;68282;42.698;23.350;2023-05-01T00:25:08;11.07;;;6.78;;
78893;SDS011;68282;42.698;23.350;2023-05-01T00:27:34;10.02;;;6.70;;
78893;SDS011;68282;42.698;23.350;2023-05-01T00:30:00;13.70;;;7.07;;
78893;SDS011;68282;42.698;23.350;2023-05-01T00:32:25;12.93;;;7.38;;
78893;SDS011;68282;42.698;23.350;2023-05-01T00:34:51;11.25;;;8.13;;
78893;SDS011;68282;42.698;23.350;2023-05-01T00:37:17;11.85;;;8.02;;
78893;SDS011;68282;42.698;23.350;2023-05-01T00:39:42;9.35;;;6.72;;
78893;SDS011;68282;42.698;23.350;2023-05-01T00:42:07;12.95;;;7.90;;
78893;SDS011;68282;42.698;23.350;2023-05-01T00:44:33;9.27;;;6.93;;
78893;SDS011;68282;42.698;23.350;2023-05-01T00:46:58;11.70;;;7.10;;
78893;SDS011;68282;42.698;23.350;2023-05-01T00:49:26;10.80;;;7.22;;
78893;SDS011;68282;42.698;23.350;2023-05-01T00:51:51;13.95;;;6.90;;
78893;SDS011;68282;42.698;23.350;2023-05-01T00:54:18;8.43;;;6.38;;
78893;SDS011;68282;42.698;23.350;2023-05-01T00:56:45;13.15;;;7.25;;
78893;SDS011;68282;42.698;23.350;2023-05-01T00:59:12;9.57;;;6.15;;
78893;SDS011;68282;42.698;23.350;2023-05-01T01:01:39;10.70;;;6.90;;
78893;SDS011;68282;42.698;23.350;2023-05-01T01:04:05;10.35;;;7.25;;
78893;SDS011;68282;42.698;23.350;2023-05-01T01:06:33;10.00;;;6.75;;
78893;SDS011;68282;42.698;23.350;2023-05-01T01:09:05;13.40;;;7.20;;
78893;SDS011;68282;42.698;23.350;2023-05-01T01:12:02;12.40;;;7.50;;
78893;SDS011;68282;42.698;23.350;2023-05-01T01:17:37;11.52;;;7.22;;
78893;SDS011;68282;42.698;23.350;2023-05-01T01:22:45;8.73;;;6.28;;
78893;SDS011;68282;42.698;23.350;2023-05-01T01:36:19;11.38;;;6.07;;
78893;SDS011;68282;42.698;23.350;2023-05-01T01:38:58;10.05;;;7.03;;
78893;SDS011;68282;42.698;23.350;2023-05-01T01:41:40;9.85;;;6.95;;
78893;SDS011;68282;42.698;23.350;2023-05-01T01:44:16;12.05;;;7.03;;
78893;SDS011;68282;42.698;23.350;2023-05-01T01:46:47;9.30;;;6.43;;
78893;SDS011;68282;42.698;23.350;2023-05-01T01:49:18;9.95;;;6.53;;
78893;SDS011;68282;42.698;23.350;2023-05-01T01:51:50;10.93;;;7.07;;
78893;SDS011;68282;42.698;23.350;2023-05-01T01:54:18;9.27;;;6.95;;
78893;SDS011;68282;42.698;23.350;2023-05-01T01:56:50;9.98;;;6.70;;
78893;SDS011;68282;42.698;23.350;2023-05-01T01:59:17;10.40;;;5.82;;
78893;SDS011;68282;42.698;23.350;2023-05-01T02:01:44;8.68;;;6.47;;
78893;SDS011;68282;42.698;23.350;2023-05-01T02:04:10;8.68;;;6.25;;
78893;SDS011;68282;42.698;23.350;2023-05-01T02:06:39;10.02;;;7.28;;
78893;SDS011;68282;42.698;23.350;2023-05-01T02:09:06;8.63;;;6.30;;
78893;SDS011;68282;42.698;23.350;2023-05-01T02:11:33;13.63;;;6.63;;
78893;SDS011;68282;42.698;23.350;2023-05-01T02:14:01;10.45;;;6.72;;
78893;SDS011;68282;42.698;23.350;2023-05-01T02:16:28;10.80;;;6.28;;
78893;SDS011;68282;42.698;23.350;2023-05-01T02:18:55;10.18;;;6.00;;
78893;SDS011;68282;42.698;23.350;2023-05-01T02:21:22;10.48;;;7.03;;
78893;SDS011;68282;42.698;23.350;2023-05-01T02:23:48;7.75;;;5.68;;
78893;SDS011;68282;42.698;23.350;2023-05-01T02:26:23;13.93;;;7.65;;
78893;SDS011;68282;42.698;23.350;2023-05-01T02:28:52;12.32;;;7.32;;
78893;SDS011;68282;42.698;23.350;2023-05-01T02:31:18;12.93;;;8.18;;
78893;SDS011;68282;42.698;23.350;2023-05-01T02:33:44;10.60;;;7.20;;
78893;SDS011;68282;42.698;23.350;2023-05-01T02:36:09;12.93;;;7.85;;
78893;SDS011;68282;42.698;23.350;2023-05-01T02:38:37;10.45;;;7.13;;
78893;SDS011;68282;42.698;23.350;2023-05-01T02:41:02;13.80;;;9.23;;
78893;SDS011;68282;42.698;23.350;2023-05-01T02:43:28;12.15;;;8.57;;
78893;SDS011;68282;42.698;23.350;2023-05-01T02:48:24;14.85;;;8.85;;
78893;SDS011;68282;42.698;23.350;2023-05-01T02:50:52;19.02;;;9.77;;
78893;SDS011;68282;42.698;23.350;2023-05-01T02:53:19;19.17;;;10.13;;
78893;SDS011;68282;42.698;23.350;2023-05-01T02:55:46;15.70;;;9.65;;
78893;SDS011;68282;42.698;23.350;2023-05-01T02:58:18;14.38;;;8.27;;
78893;SDS011;68282;42.698;23.350;2023-05-01T03:00:45;13.32;;;7.93;;
78893;SDS011;68282;42.698;23.350;2023-05-01T03:03:13;9.55;;;5.78;;
78893;SDS011;68282;42.698;23.350;2023-05-01T03:05:39;6.72;;;4.90;;
78893;SDS011;68282;42.698;23.350;2023-05-01T03:08:05;8.10;;;5.15;;
78893;SDS011;68282;42.698;23.350;2023-05-01T03:10:31;9.60;;;5.00;;
78893;SDS011;68282;42.698;23.350;2023-05-01T03:12:57;9.40;;;5.15;;
78893;SDS011;68282;42.698;23.350;2023-05-01T03:15:22;7.57;;;5.22;;
78893;SDS011;68282;42.698;23.350;2023-05-01T03:17:48;7.63;;;5.10;;
78893;SDS011;68282;42.698;23.350;2023-05-01T03:20:13;8.02;;;4.82;;
78893;SDS011;68282;42.698;23.350;2023-05-01T03:22:40;8.10;;;5.20;;
78893;SDS011;68282;42.698;23.350;2023-05-01T03:25:05;7.47;;;4.80;;
78893;SDS011;68282;42.698;23.350;2023-05-01T03:27:31;7.75;;;4.72;;
78893;SDS011;68282;42.698;23.350;2023-05-01T03:29:56;12.38;;;5.55;;
78893;SDS011;68282;42.698;23.350;2023-05-01T03:32:22;10.27;;;4.85;;
78893;SDS011;68282;42.698;23.350;2023-05-01T03:34:47;7.68;;;5.32;;
78893;SDS011;68282;42.698;23.350;2023-05-01T03:37:13;8.25;;;5.18;;
78893;SDS011;68282;42.698;23.350;2023-05-01T03:39:39;11.52;;;5.22;;
78893;SDS011;68282;42.698;23.350;2023-05-01T03:42:04;9.90;;;4.78;;
78893;SDS011;68282;42.698;23.350;2023-05-01T03:44:30;6.05;;;4.55;;
78893;SDS011;68282;42.698;23.350;2023-05-01T03:46:56;6.53;;;5.20;;
78893;SDS011;68282;42.698;23.350;2023-05-01T03:49:22;8.65;;;5.07;;
78893;SDS011;68282;42.698;23.350;2023-05-01T03:51:47;7.93;;;4.55;;
78893;SDS011;68282;42.698;23.350;2023-05-01T03:54:13;9.52;;;5.22;;
78893;SDS011;68282;42.698;23.350;2023-05-01T03:56:38;7.88;;;5.22;;
78893;SDS011;68282;42.698;23.350;2023-05-01T03:59:04;7.18;;;4.65;;
78893;SDS011;68282;42.698;23.350;2023-05-01T04:01:29;9.23;;;5.72;;
78893;SDS011;68282;42.698;23.350;2023-05-01T04:03:57;10.77;;;5.22;;
78893;SDS011;68282;42.698;23.350;2023-05-01T04:06:23;8.23;;;5.55;;
78893;SDS011;68282;42.698;23.350;2023-05-01T04:08:48;7.82;;;4.82;;
78893;SDS011;68282;42.698;23.350;2023-05-01T04:11:14;9.13;;;5.82;;
78893;SDS011;68282;42.698;23.350;2023-05-01T04:13:39;10.45;;;5.78;;
78893;SDS011;68282;42.698;23.350;2023-05-01T04:16:05;9.27;;;6.00;;
78893;SDS011;68282;42.698;23.350;2023-05-01T04:18:31;9.15;;;5.57;;
78893;SDS011;68282;42.698;23.350;2023-05-01T04:20:56;10.07;;;5.90;;
78893;SDS011;68282;42.698;23.350;2023-05-01T04:23:22;6.75;;;4.80;;
78893;SDS011;68282;42.698;23.350;2023-05-01T04:25:47;8.93;;;5.47;;
78893;SDS011;68282;42.698;23.350;2023-05-01T04:28:13;8.85;;;5.47;;
78893;SDS011;68282;42.698;23.350;2023-05-01T04:30:38;8.43;;;5.57;;
78893;SDS011;68282;42.698;23.350;2023-05-01T04:33:04;6.80;;;5.47;;
78893;SDS011;68282;42.698;23.350;2023-05-01T04:35:35;10.45;;;6.05;;
78893;SDS011;68282;42.698;23.350;2023-05-01T04:38:05;9.27;;;5.97;;
78893;SDS011;68282;42.698;23.350;2023-05-01T04:40:31;8.35;;;6.00;;
78893;SDS011;68282;42.698;23.350;2023-05-01T04:42:56;8.63;;;5.50;;
78893;SDS011;68282;42.698;23.350;2023-05-01T04:45:22;11.13;;;5.88;;
78893;SDS011;68282;42.698;23.350;2023-05-01T04:47:47;9.95;;;6.32;;
78893;SDS011;68282;42.698;23.350;2023-05-01T04:50:12;10.15;;;7.05;;
78893;SDS011;68282;42.698;23.350;2023-05-01T04:52:38;12.18;;;6.38;;
78893;SDS011;68282;42.698;23.350;2023-05-01T04:55:04;9.77;;;6.47;;
78893;SDS011;68282;42.698;23.350;2023-05-01T04:57:29;10.60;;;6.25;;
78893;SDS011;68282;42.698;23.350;2023-05-01T04:59:55;8.13;;;5.82;;
78893;SDS011;68282;42.698;23.350;2023-05-01T05:02:20;11.70;;;5.68;;
78893;SDS011;68282;42.698;23.350;2023-05-01T05:04:46;8.57;;;5.78;;
78893;SDS011;68282;42.698;23.350;2023-05-01T05:07:11;9.60;;;5.57;;
78893;SDS011;68282;42.698;23.350;2023-05-01T05:09:36;8.55;;;5.85;;
78893;SDS011;68282;42.698;23.350;2023-05-01T05:12:02;13.88;;;7.30;;
78893;SDS011;68282;42.698;23.350;2023-05-01T05:14:28;13.68;;;7.72;;
78893;SDS011;68282;42.698;23.350;2023-05-01T05:16:54;13.38;;;7.63;;
78893;SDS011;68282;42.698;23.350;2023-05-01T05:19:19;14.07;;;7.57;;
78893;SDS011;68282;42.698;23.350;2023-05-01T05:21:45;16.38;;;7.82;;
78893;SDS011;68282;42.698;23.350;2023-05-01T05:24:10;12.82;;;8.23;;
78893;SDS011;68282;42.698;23.350;2023-05-01T05:26:35;17.05;;;8.18;;
78893;SDS011;68282;42.698;23.350;2023-05-01T05:29:02;15.52;;;8.85;;
78893;SDS011;68282;42.698;23.350;2023-05-01T05:31:28;20.45;;;8.43;;
78893;SDS011;68282;42.698;23.350;2023-05-01T05:33:53;14.00;;;7.97;;
78893;SDS011;68282;42.698;23.350;2023-05-01T05:36:18;12.18;;;7.53;;
78893;SDS011;68282;42.698;23.350;2023-05-01T05:38:44;13.13;;;7.90;;
78893;SDS011;68282;42.698;23.350;2023-05-01T05:41:09;12.68;;;8.63;;
78893;SDS011;68282;42.698;23.350;2023-05-01T05:43:35;17.77;;;7.72;;
78893;SDS011;68282;42.698;23.350;2023-05-01T05:46:01;14.35;;;7.60;;
78893;SDS011;68282;42.698;23.350;2023-05-01T05:48:26;14.40;;;8.27;;
78893;SDS011;68282;42.698;23.350;2023-05-01T05:50:52;11.25;;;7.28;;
78893;SDS011;68282;42.698;23.350;2023-05-01T05:53:18;11.27;;;7.75;;
78893;SDS011;68282;42.698;23.350;2023-05-01T05:55:45;13.10;;;7.55;;
78893;SDS011;68282;42.698;23.350;2023-05-01T05:58:11;11.88;;;8.20;;
78893;SDS011;68282;42.698;23.350;2023-05-01T06:00:38;15.20;;;6.95;;
78893;SDS011;68282;42.698;23.350;2023-05-01T06:03:04;12.55;;;7.40;;
78893;SDS011;68282;42.698;23.350;2023-05-01T06:05:31;15.88;;;7.22;;
78893;SDS011;68282;42.698;23.350;2023-05-01T06:07:56;17.92;;;8.57;;
78893;SDS011;68282;42.698;23.350;2023-05-01T06:10:22;9.82;;;6.43;;
78893;SDS011;68282;42.698;23.350;2023-05-01T06:12:47;11.82;;;6.60;;
78893;SDS011;68282;42.698;23.350;2023-05-01T06:15:13;10.85;;;7.18;;
78893;SDS011;68282;42.698;23.350;2023-05-01T06:17:41;8.25;;;5.95;;
78893;SDS011;68282;42.698;23.350;2023-05-01T06:20:07;8.25;;;6.20;;
78893;SDS011;68282;42.698;23.350;2023-05-01T06:22:33;8.45;;;6.43;;
78893;SDS011;68282;42.698;23.350;2023-05-01T06:24:59;8.18;;;6.50;;
78893;SDS011;68282;42.698;23.350;2023-05-01T06:27:25;10.38;;;6.72;;
78893;SDS011;68282;42.698;23.350;2023-05-01T06:29:52;8.65;;;6.07;;
78893;SDS011;68282;42.698;23.350;2023-05-01T06:32:18;9.73;;;6.22;;
78893;SDS011;68282;42.698;23.350;2023-05-01T06:34:43;15.80;;;7.18;;
78893;SDS011;68282;42.698;23.350;2023-05-01T06:37:09;12.25;;;6.57;;
78893;SDS011;68282;42.698;23.350;2023-05-01T06:39:34;10.15;;;5.47;;
78893;SDS011;68282;42.698;23.350;2023-05-01T06:42:00;10.25;;;6.68;;
78893;SDS011;68282;42.698;23.350;2023-05-01T06:44:27;8.85;;;5.30;;
78893;SDS011;68282;42.698;23.350;2023-05-01T06:46:53;9.35;;;6.22;;
78893;SDS011;68282;42.698;23.350;2023-05-01T06:49:18;13.35;;;6.95;;
78893;SDS011;68282;42.698;23.350;2023-05-01T06:51:44;9.10;;;6.45;;
78893;SDS011;68282;42.698;23.350;2023-05-01T06:54:09;10.90;;;6.43;;
78893;SDS011;68282;42.698;23.350;2023-05-01T06:56:35;9.30;;;6.68;;
78893;SDS011;68282;42.698;23.350;2023-05-01T06:59:01;9.77;;;7.30;;
78893;SDS011;68282;42.698;23.350;2023-05-01T07:01:26;12.13;;;7.50;;
78893;SDS011;68282;42.698;23.350;2023-05-01T07:03:53;36.92;;;23.90;;
78893;SDS011;68282;42.698;23.350;2023-05-01T07:06:18;15.93;;;11.45;;
78893;SDS011;68282;42.698;23.350;2023-05-01T07:08:43;36.35;;;24.77;;
78893;SDS011;68282;42.698;23.350;2023-05-01T07:11:09;68.15;;;46.47;;
78893;SDS011;68282;42.698;23.350;2023-05-01T07:13:34;12.93;;;9.57;;
78893;SDS011;68282;42.698;23.350;2023-05-01T07:16:00;15.68;;;10.48;;
78893;SDS011;68282;42.698;23.350;2023-05-01T07:18:26;53.78;;;34.78;;
78893;SDS011;68282;42.698;23.350;2023-05-01T07:20:51;15.80;;;10.52;;
78893;SDS011;68282;42.698;23.350;2023-05-01T07:23:17;10.98;;;8.25;;
78893;SDS011;68282;42.698;23.350;2023-05-01T07:25:43;12.40;;;8.50;;
78893;SDS011;68282;42.698;23.350;2023-05-01T07:28:09;13.18;;;8.60;;
78893;SDS011;68282;42.698;23.350;2023-05-01T07:30:35;15.40;;;8.02;;
78893;SDS011;68282;42.698;23.350;2023-05-01T07:33:01;13.88;;;8.32;;
78893;SDS011;68282;42.698;23.350;2023-05-01T07:35:29;10.00;;;7.15;;
78893;SDS011;68282;42.698;23.350;2023-05-01T07:37:54;11.60;;;8.00;;
78893;SDS011;68282;42.698;23.350;2023-05-01T07:40:20;11.80;;;7.80;;
78893;SDS011;68282;42.698;23.350;2023-05-01T07:42:45;12.75;;;7.97;;
78893;SDS011;68282;42.698;23.350;2023-05-01T07:45:11;10.98;;;7.40;;
78893;SDS011;68282;42.698;23.350;2023-05-01T07:47:36;12.25;;;7.50;;
78893;SDS011;68282;42.698;23.350;2023-05-01T07:50:02;11.25;;;7.88;;
78893;SDS011;68282;42.698;23.350;2023-05-01T07:52:28;13.32;;;7.57;;
78893;SDS011;68282;42.698;23.350;2023-05-01T07:54:54;13.25;;;7.90;;
78893;SDS011;68282;42.698;23.350;2023-05-01T07:57:19;10.10;;;6.60;;
78893;SDS011;68282;42.698;23.350;2023-05-01T07:59:47;10.15;;;7.25;;
78893;SDS011;68282;42.698;23.350;2023-05-01T08:02:12;12.63;;;7.35;;
78893;SDS011;68282;42.698;23.350;2023-05-01T08:04:40;11.05;;;7.53;;
78893;SDS011;68282;42.698;23.350;2023-05-01T08:07:06;14.55;;;7.40;;
78893;SDS011;68282;42.698;23.350;2023-05-01T08:09:32;11.30;;;6.93;;
78893;SDS011;68282;42.698;23.350;2023-05-01T08:11:57;10.32;;;7.63;;
78893;SDS011;68282;42.698;23.350;2023-05-01T08:14:23;13.18;;;6.50;;
78893;SDS011;68282;42.698;23.350;2023-05-01T08:16:48;9.32;;;6.40;;
78893;SDS011;68282;42.698;23.350;2023-05-01T08:19:19;7.60;;;5.47;;
78893;SDS011;68282;42.698;23.350;2023-05-01T08:21:44;8.60;;;6.18;;
78893;SDS011;68282;42.698;23.350;2023-05-01T08:24:10;9.35;;;6.45;;
78893;SDS011;68282;42.698;23.350;2023-05-01T08:26:35;11.65;;;5.93;;
78893;SDS011;68282;42.698;23.350;2023-05-01T08:29:01;7.65;;;5.30;;
78893;SDS011;68282;42.698;23.350;2023-05-01T08:31:27;10.48;;;6.10;;
78893;SDS011;68282;42.698;23.350;2023-05-01T08:33:52;6.55;;;4.80;;
78893;SDS011;68282;42.698;23.350;2023-05-01T08:36:17;7.18;;;5.30;;
78893;SDS011;68282;42.698;23.350;2023-05-01T08:38:43;8.23;;;5.10;;
78893;SDS011;68282;42.698;23.350;2023-05-01T08:41:09;5.30;;;3.78;;
78893;SDS011;68282;42.698;23.350;2023-05-01T08:43:40;7.32;;;5.13;;
78893;SDS011;68282;42.698;23.350;2023-05-01T08:46:07;7.88;;;5.72;;
78893;SDS011;68282;42.698;23.350;2023-05-01T08:48:35;6.47;;;4.97;;
78893;SDS011;68282;42.698;23.350;2023-05-01T08:51:03;10.25;;;4.97;;
78893;SDS011;68282;42.698;23.350;2023-05-01T08:53:30;5.07;;;4.18;;
78893;SDS011;68282;42.698;23.350;2023-05-01T08:55:57;5.57;;;3.53;;
78893;SDS011;68282;42.698;23.350;2023-05-01T08:58:24;5.68;;;3.92;;
78893;SDS011;68282;42.698;23.350;2023-05-01T09:00:52;6.75;;;3.50;;
78893;SDS011;68282;42.698;23.350;2023-05-01T09:03:20;4.68;;;3.10;;
78893;SDS011;68282;42.698;23.350;2023-05-01T09:05:50;4.60;;;2.90;;
78893;SDS011;68282;42.698;23.350;2023-05-01T09:08:17;9.18;;;2.90;;
78893;SDS011;68282;42.698;23.350;2023-05-01T09:10:44;3.20;;;2.40;;
78893;SDS011;68282;42.698;23.350;2023-05-01T09:13:12;4.22;;;2.65;;
78893;SDS011;68282;42.698;23.350;2023-05-01T09:15:37;4.28;;;3.58;;
78893;SDS011;68282;42.698;23.350;2023-05-01T09:18:03;4.55;;;3.15;;
78893;SDS011;68282;42.698;23.350;2023-05-01T09:20:29;4.85;;;2.72;;
78893;SDS011;68282;42.698;23.350;2023-05-01T09:22:56;3.83;;;2.90;;
78893;SDS011;68282;42.698;23.350;2023-05-01T09:25:21;5.60;;;3.35;;
78893;SDS011;68282;42.698;23.350;2023-05-01T09:27:47;6.05;;;3.60;;
78893;SDS011;68282;42.698;23.350;2023-05-01T09:30:29;4.43;;;3.33;;
78893;SDS011;68282;42.698;23.350;2023-05-01T09:33:08;4.55;;;3.40;;
78893;SDS011;68282;42.698;23.350;2023-05-01T09:35:53;4.82;;;3.40;;
78893;SDS011;68282;42.698;23.350;2023-05-01T09:38:24;6.18;;;3.45;;
78893;SDS011;68282;42.698;23.350;2023-05-01T09:40:51;3.42;;;2.65;;
78893;SDS011;68282;42.698;23.350;2023-05-01T09:43:27;4.80;;;3.22;;
78893;SDS011;68282;42.698;23.350;2023-05-01T09:46:00;6.60;;;3.33;;
78893;SDS011;68282;42.698;23.350;2023-05-01T09:48:26;5.22;;;3.22;;
78893;SDS011;68282;42.698;23.350;2023-05-01T09:50:52;4.80;;;3.60;;
78893;SDS011;68282;42.698;23.350;2023-05-01T09:53:17;4.28;;;3.10;;
78893;SDS011;68282;42.698;23.350;2023-05-01T09:55:43;4.57;;;3.38;;
78893;SDS011;68282;42.698;23.350;2023-05-01T09:58:27;4.65;;;3.25;;
78893;SDS011;68282;42.698;23.350;2023-05-01T10:00:53;5.10;;;3.42;;
78893;SDS011;68282;42.698;23.350;2023-05-01T10:03:18;6.00;;;3.42;;
78893;SDS011;68282;42.698;23.350;2023-05-01T10:05:43;5.90;;;3.72;;
78893;SDS011;68282;42.698;23.350;2023-05-01T10:08:09;6.75;;;3.88;;
78893;SDS011;68282;42.698;23.350;2023-05-01T10:10:38;4.97;;;3.42;;
78893;SDS011;68282;42.698;23.350;2023-05-01T10:13:25;5.97;;;3.55;;
78893;SDS011;68282;42.698;23.350;2023-05-01T10:15:51;3.95;;;3.03;;
78893;SDS011;68282;42.698;23.350;2023-05-01T10:18:16;4.95;;;3.20;;
78893;SDS011;68282;42.698;23.350;2023-05-01T10:20:42;4.07;;;3.17;;
78893;SDS011;68282;42.698;23.350;2023-05-01T10:23:08;4.18;;;3.00;;
78893;SDS011;68282;42.698;23.350;2023-05-01T10:25:34;4.07;;;3.00;;
78893;SDS011;68282;42.698;23.350;2023-05-01T10:28:04;4.55;;;3.22;;
78893;SDS011;68282;42.698;23.350;2023-05-01T10:32:57;3.47;;;2.60;;
78893;SDS011;68282;42.698;23.350;2023-05-01T10:35:25;4.70;;;3.03;;
78893;SDS011;68282;42.698;23.350;2023-05-01T10:37:57;3.90;;;2.58;;
78893;SDS011;68282;42.698;23.350;2023-05-01T10:53:38;3.20;;;2.05;;
78893;SDS011;68282;42.698;23.350;2023-05-01T10:56:05;3.10;;;2.03;;
78893;SDS011;68282;42.698;23.350;2023-05-01T10:58:53;3.80;;;2.40;;
78893;SDS011;68282;42.698;23.350;2023-05-01T11:04:06;3.33;;;2.17;;
78893;SDS011;68282;42.698;23.350;2023-05-01T11:12:03;3.75;;;2.35;;
78893;SDS011;68282;42.698;23.350;2023-05-01T11:20:08;6.10;;;2.47;;
78893;SDS011;68282;42.698;23.350;2023-05-01T11:22:35;4.82;;;2.40;;
78893;SDS011;68282;42.698;23.350;2023-05-01T11:25:02;2.97;;;2.10;;
78893;SDS011;68282;42.698;23.350;2023-05-01T11:27:29;3.35;;;2.17;;
78893;SDS011;68282;42.698;23.350;2023-05-01T11:29:55;7.53;;;2.78;;
78893;SDS011;68282;42.698;23.350;2023-05-01T11:32:23;3.00;;;2.25;;
78893;SDS011;68282;42.698;23.350;2023-05-01T11:34:51;5.68;;;2.42;;
78893;SDS011;68282;42.698;23.350;2023-05-01T11:37:17;3.97;;;2.30;;
78893;SDS011;68282;42.698;23.350;2023-05-01T11:39:47;4.45;;;2.72;;
78893;SDS011;68282;42.698;23.350;2023-05-01T11:42:13;2.90;;;2.08;;
78893;SDS011;68282;42.698;23.350;2023-05-01T11:44:38;3.05;;;2.13;;
78893;SDS011;68282;42.698;23.350;2023-05-01T11:47:04;3.42;;;2.15;;
78893;SDS011;68282;42.698;23.350;2023-05-01T11:49:31;3.60;;;2.40;;
78893;SDS011;68282;42.698;23.350;2023-05-01T11:51:57;3.30;;;2.17;;
78893;SDS011;68282;42.698;23.350;2023-05-01T11:54:23;3.47;;;2.20;;
78893;SDS011;68282;42.698;23.350;2023-05-01T11:56:56;3.40;;;2.20;;
78893;SDS011;68282;42.698;23.350;2023-05-01T11:59:25;3.65;;;2.30;;
78893;SDS011;68282;42.698;23.350;2023-05-01T12:01:51;3.92;;;2.22;;
78893;SDS011;68282;42.698;23.350;2023-05-01T12:04:26;3.75;;;2.08;;
78893;SDS011;68282;42.698;23.350;2023-05-01T12:09:18;3.10;;;2.03;;
78893;SDS011;68282;42.698;23.350;2023-05-01T12:11:49;3.78;;;2.28;;
78893;SDS011;68282;42.698;23.350;2023-05-01T12:16:42;3.33;;;2.22;;
78893;SDS011;68282;42.698;23.350;2023-05-01T12:19:11;3.00;;;2.10;;
78893;SDS011;68282;42.698;23.350;2023-05-01T12:21:40;3.15;;;2.33;;
78893;SDS011;68282;42.698;23.350;2023-05-01T12:24:13;3.05;;;2.17;;
78893;SDS011;68282;42.698;23.350;2023-05-01T12:26:40;2.53;;;1.88;;
78893;SDS011;68282;42.698;23.350;2023-05-01T12:29:07;4.18;;;2.30;;
78893;SDS011;68282;42.698;23.350;2023-05-01T12:31:33;4.10;;;2.08;;
78893;SDS011;68282;42.698;23.350;2023-05-01T12:34:03;3.00;;;2.20;;
78893;SDS011;68282;42.698;23.350;2023-05-01T12:36:31;5.53;;;2.10;;
78893;SDS011;68282;42.698;23.350;2023-05-01T12:38:58;3.50;;;1.90;;
78893;SDS011;68282;42.698;23.350;2023-05-01T12:44:00;7.07;;;1.80;;
78893;SDS011;68282;42.698;23.350;2023-05-01T12:46:25;3.70;;;2.20;;
78893;SDS011;68282;42.698;23.350;2023-05-01T12:48:51;2.95;;;1.98;;
78893;SDS011;68282;42.698;23.350;2023-05-01T12:51:20;2.95;;;1.75;;
78893;SDS011;68282;42.698;23.350;2023-05-01T12:53:46;3.90;;;2.10;;
78893;SDS011;68282;42.698;23.350;2023-05-01T12:56:22;3.55;;;1.88;;
78893;SDS011;68282;42.698;23.350;2023-05-01T12:58:50;4.10;;;2.10;;
78893;SDS011;68282;42.698;23.350;2023-05-01T13:01:26;3.22;;;2.10;;
78893;SDS011;68282;42.698;23.350;2023-05-01T13:03:53;4.65;;;2.35;;
78893;SDS011;68282;42.698;23.350;2023-05-01T13:06:20;3.20;;;1.90;;
78893;SDS011;68282;42.698;23.350;2023-05-01T13:08:46;2.78;;;1.90;;
78893;SDS011;68282;42.698;23.350;2023-05-01T13:11:13;7.50;;;2.28;;
78893;SDS011;68282;42.698;23.350;2023-05-01T13:13:40;3.53;;;2.25;;
78893;SDS011;68282;42.698;23.350;2023-05-01T13:18:50;2.80;;;1.83;;
78893;SDS011;68282;42.698;23.350;2023-05-01T13:21:20;2.40;;;1.80;;
78893;SDS011;68282;42.698;23.350;2023-05-01T13:23:56;3.85;;;2.13;;
78893;SDS011;68282;42.698;23.350;2023-05-01T13:26:24;3.42;;;2.10;;
78893;SDS011;68282;42.698;23.350;2023-05-01T13:28:54;5.15;;;1.90;;
78893;SDS011;68282;42.698;23.350;2023-05-01T13:31:21;3.42;;;1.80;;
78893;SDS011;68282;42.698;23.350;2023-05-01T13:33:47;2.55;;;1.70;;
78893;SDS011;68282;42.698;23.350;2023-05-01T13:36:15;2.50;;;1.70;;
78893;SDS011;68282;42.698;23.350;2023-05-01T13:38:42;2.95;;;1.90;;
78893;SDS011;68282;42.698;23.350;2023-05-01T13:41:16;2.72;;;1.70;;
78893;SDS011;68282;42.698;23.350;2023-05-01T13:43:49;2.58;;;1.90;;
78893;SDS011;68282;42.698;23.350;2023-05-01T13:46:18;2.97;;;1.90;;
78893;SDS011;68282;42.698;23.350;2023-05-01T13:48:45;4.93;;;1.83;;
78893;SDS011;68282;42.698;23.350;2023-05-01T13:51:12;3.72;;;1.80;;
78893;SDS011;68282;42.698;23.350;2023-05-01T13:53:39;2.88;;;2.00;;
78893;SDS011;68282;42.698;23.350;2023-05-01T13:56:06;2.92;;;1.90;;
78893;SDS011;68282;42.698;23.350;2023-05-01T13:58:33;3.60;;;1.90;;
78893;SDS011;68282;42.698;23.350;2023-05-01T14:00:59;2.70;;;1.80;;
78893;SDS011;68282;42.698;23.350;2023-05-01T14:03:25;2.47;;;1.77;;
78893;SDS011;68282;42.698;23.350;2023-05-01T14:05:51;2.80;;;2.00;;
78893;SDS011;68282;42.698;23.350;2023-05-01T14:08:19;2.72;;;1.63;;
78893;SDS011;68282;42.698;23.350;2023-05-01T14:10:47;2.63;;;1.70;;
78893;SDS011;68282;42.698;23.350;2023-05-01T14:13:12;2.80;;;1.92;;
78893;SDS011;68282;42.698;23.350;2023-05-01T14:15:41;3.53;;;2.10;;
78893;SDS011;68282;42.698;23.350;2023-05-01T14:18:07;2.42;;;1.73;;
78893;SDS011;68282;42.698;23.350;2023-05-01T14:20:35;2.72;;;1.92;;
78893;SDS011;68282;42.698;23.350;2023-05-01T14:23:00;2.30;;;1.60;;
78893;SDS011;68282;42.698;23.350;2023-05-01T14:25:27;2.97;;;1.98;;
78893;SDS011;68282;42.698;23.350;2023-05-01T14:27:55;2.90;;;1.70;;
78893;SDS011;68282;42.698;23.350;2023-05-01T14:30:32;3.35;;;2.08;;
78893;SDS011;68282;42.698;23.350;2023-05-01T14:33:01;2.80;;;1.90;;
78893;SDS011;68282;42.698;23.350;2023-05-01T14:35:28;2.42;;;1.65;;
78893;SDS011;68282;42.698;23.350;2023-05-01T14:37:53;3.47;;;2.00;;
78893;SDS011;68282;42.698;23.350;2023-05-01T14:40:25;2.88;;;1.80;;
78893;SDS011;68282;42.698;23.350;2023-05-01T14:42:56;2.25;;;1.60;;
78893;SDS011;68282;42.698;23.350;2023-05-01T14:45:21;3.67;;;1.85;;
78893;SDS011;68282;42.698;23.350;2023-05-01T14:47:47;2.95;;;1.70;;
78893;SDS011;68282;42.698;23.350;2023-05-01T14:50:22;2.90;;;2.00;;
78893;SDS011;68282;42.698;23.350;2023-05-01T14:52:55;3.08;;;1.80;;
78893;SDS011;68282;42.698;23.350;2023-05-01T14:55:26;3.13;;;1.80;;
78893;SDS011;68282;42.698;23.350;2023-05-01T14:57:58;2.72;;;1.77;;
78893;SDS011;68282;42.698;23.350;2023-05-01T15:00:25;2.50;;;1.70;;
78893;SDS011;68282;42.698;23.350;2023-05-01T15:02:51;2.40;;;1.90;;
78893;SDS011;68282;42.698;23.350;2023-05-01T15:05:17;34.40;;;24.27;;
78893;SDS011;68282;42.698;23.350;2023-05-01T15:07:42;25.45;;;19.00;;
78893;SDS011;68282;42.698;23.350;2023-05-01T15:10:08;3.50;;;1.90;;
78893;SDS011;68282;42.698;23.350;2023-05-01T15:12:34;5.43;;;3.75;;
78893;SDS011;68282;42.698;23.350;2023-05-01T15:14:59;11.30;;;6.18;;
78893;SDS011;68282;42.698;23.350;2023-05-01T15:17:25;3.38;;;1.80;;
78893;SDS011;68282;42.698;23.350;2023-05-01T15:19:51;3.42;;;2.00;;
78893;SDS011;68282;42.698;23.350;2023-05-01T15:22:16;3.38;;;2.30;;
78893;SDS011;68282;42.698;23.350;2023-05-01T15:24:45;3.13;;;1.83;;
78893;SDS011;68282;42.698;23.350;2023-05-01T15:27:10;3.25;;;1.90;;